This is the latest recevied weather packets stored in our database for station/object KBTL-WX. If no packets are shown the sender has not sent any weather packets the latest 10 day(s).
| Time | Temp. | Humidity | Pressure | Rain* | Wind** | Luminosity | Snow |
|---|---|---|---|---|---|---|---|
| 1777454112 | 9.44° C | 91% | 979.5 hPa | 0.25 mm | - | - | - |
| 1777453238 | 9.44° C | 91% | 979.5 hPa | 0.25 mm | - | - | - |
| 1777452313 | 9.44° C | 88% | 978.8 hPa | 0 mm | - | - | - |
| 1777451431 | 8.89° C | 86% | 978.3 hPa | 0 mm | - | - | - |
| 1777450513 | 8.89° C | 86% | 978.3 hPa | 0 mm | - | - | - |
| 1777449637 | 8.89° C | 86% | 978.3 hPa | 0 mm | - | - | - |
| 1777448712 | 8.89° C | 82% | 979 hPa | 0 mm | - | - | - |
| 1777447831 | 8.89° C | 82% | 979 hPa | 0 mm | - | - | - |
| 1777446913 | 8.89° C | 82% | 979 hPa | 0 mm | - | - | - |
| 1777446036 | 8.89° C | 82% | 979 hPa | 0 mm | - | - | - |
| 1777445113 | 8.89° C | 75% | 980.9 hPa | 0 mm | - | - | - |
| 1777444231 | 8.89° C | 82% | 980 hPa | 0 mm | - | - | - |
| 1777443312 | 8.89° C | 82% | 980 hPa | 0 mm | - | - | - |
| 1777442441 | 9.44° C | 82% | 980 hPa | 0 mm | - | - | - |
| 1777441512 | 8.89° C | 80% | 980.8 hPa | 0 mm | - | - | - |
| 1777440632 | 8.89° C | 86% | 979.5 hPa | 0 mm | - | - | - |
| 1777439712 | 8.89° C | 86% | 979.5 hPa | 0 mm | - | - | - |
| 1777438835 | 8.89° C | 86% | 979.5 hPa | 0 mm | - | - | - |
| 1777437913 | 8.89° C | 78% | 980.9 hPa | 0 mm | - | - | - |
| 1777437031 | 8.89° C | 79% | 979.2 hPa | 0 mm | - | - | - |
| 1777436112 | 8.89° C | 79% | 979.2 hPa | 0 mm | - | - | - |
| 1777435239 | 8.89° C | 79% | 979.2 hPa | 0 mm | - | - | - |
| 1777434312 | 9.44° C | 76% | 981 hPa | 0 mm | - | - | - |
| 1777433432 | 9.44° C | 74% | 980.8 hPa | 0 mm | - | - | - |
| 1777432512 | 10° C | 74% | 980.8 hPa | 0 mm | - | - | - |
* Rain latest hour (hover to see other rain measurements)
** Current wind speed in m/s (hover to see current wind gust speed)